Time;durP1;ratioP1;P1;durP2;ratioP2;P2;SDS_P1;SDS_P2;PMS_P1;PMS_P2;Temp;Humidity;BMP_temperature;BMP_pressure;BME280_temperature;BME280_humidity;BME280_pressure;Samples;Min_cycle;Max_cycle;Signal;HPM_P1;HPM_P2
2021/09/21 00:00:26;;;;;;;1.70;0.77;;;;;;;10.68;100.00;101187.63;6339980;22;20022;-55
2021/09/21 00:03:30;;;;;;;1.20;0.50;;;;;;;10.81;100.00;101193.22;6340025;22;20037;-55
2021/09/21 00:06:33;;;;;;;2.47;0.95;;;;;;;10.97;100.00;101190.34;6339859;22;20117;-55
2021/09/21 00:09:36;;;;;;;0.17;0.17;;;;;;;11.10;100.00;101182.75;6339905;22;20025;-55
2021/09/21 00:12:40;;;;;;;0.57;0.20;;;;;;;11.25;100.00;101183.88;6340100;22;20022;-55
2021/09/21 00:15:43;;;;;;;2.25;0.95;;;;;;;11.31;100.00;101176.47;6339832;22;20098;-56
2021/09/21 00:19:49;;;;;;;2.70;0.60;;;;;;;11.36;100.00;101182.28;6340170;22;20025;-56
2021/09/21 00:22:53;;;;;;;0.50;0.20;;;;;;;11.45;100.00;101184.41;6320696;22;20071;-55
2021/09/21 00:25:56;;;;;;;0.30;0.25;;;;;;;11.48;100.00;101180.69;6339918;22;20045;-55
2021/09/21 00:29:00;;;;;;;1.17;0.38;;;;;;;11.37;100.00;101181.06;6339926;22;20026;-55
2021/09/21 00:32:04;;;;;;;0.68;0.35;;;;;;;11.53;100.00;101191.28;6339783;22;20026;-55
2021/09/21 00:35:07;;;;;;;0.98;0.35;;;;;;;11.65;100.00;101173.72;6339478;22;20458;-55
2021/09/21 00:38:12;;;;;;;0.98;0.40;;;;;;;11.67;100.00;101176.13;6339796;22;20037;-55
2021/09/21 00:41:16;;;;;;;1.27;0.50;;;;;;;11.81;100.00;101176.41;6339581;22;20517;-50
2021/09/21 00:44:20;;;;;;;3.13;0.85;;;;;;;11.86;100.00;101175.84;6339873;22;20565;-50
2021/09/21 00:47:23;;;;;;;1.17;0.57;;;;;;;11.95;100.00;101184.25;6339691;22;20026;-50
2021/09/21 00:50:28;;;;;;;0.50;0.30;;;;;;;12.09;100.00;101186.56;6339123;22;20048;-50
2021/09/21 00:53:31;;;;;;;2.63;0.50;;;;;;;12.07;100.00;101203.00;6339506;22;20026;-50
2021/09/21 00:56:34;;;;;;;0.98;0.13;;;;;;;12.18;100.00;101200.59;6320655;22;20021;-50
2021/09/21 00:59:37;;;;;;;0.35;0.30;;;;;;;12.24;100.00;101191.63;6339239;22;20025;-50
2021/09/21 01:02:41;;;;;;;1.25;0.40;;;;;;;12.36;100.00;101194.38;6339735;22;20327;-50
2021/09/21 01:05:43;;;;;;;1.45;0.50;;;;;;;12.41;100.00;101195.81;6338192;22;20061;-50
2021/09/21 01:08:47;;;;;;;1.65;0.35;;;;;;;12.45;100.00;101196.44;6339013;22;20021;-50
2021/09/21 01:11:52;;;;;;;2.25;0.35;;;;;;;12.41;100.00;101190.97;6339342;22;20022;-50
2021/09/21 01:14:55;;;;;;;1.20;0.57;;;;;;;12.44;100.00;101194.88;6339105;22;20098;-55
2021/09/21 01:17:58;;;;;;;3.55;0.82;;;;;;;12.46;100.00;101178.44;6339203;22;20110;-55
2021/09/21 01:21:09;;;;;;;4.57;0.65;;;;;;;12.58;100.00;101172.00;6339282;22;20021;-55
2021/09/21 01:24:14;;;;;;;0.25;0.25;;;;;;;12.68;100.00;101176.38;6339530;22;20026;-55
2021/09/21 01:27:17;;;;;;;0.30;0.20;;;;;;;12.85;100.00;101175.69;6320313;22;20075;-55
2021/09/21 01:30:21;;;;;;;1.17;0.45;;;;;;;12.92;100.00;101166.25;6338879;22;20121;-55
2021/09/21 01:33:23;;;;;;;0.68;0.30;;;;;;;13.01;100.00;101171.09;6338999;22;20098;-55
2021/09/21 01:36:28;;;;;;;1.60;0.20;;;;;;;13.08;100.00;101171.63;6339005;22;20048;-55
2021/09/21 01:39:32;;;;;;;1.50;0.40;;;;;;;13.03;100.00;101175.00;6338581;22;20071;-55
2021/09/21 01:42:41;;;;;;;0.45;0.40;;;;;;;13.01;100.00;101174.69;6339132;22;20026;-55
2021/09/21 01:45:44;;;;;;;0.55;0.35;;;;;;;13.09;100.00;101167.59;6338994;22;20053;-55
2021/09/21 01:48:47;;;;;;;0.20;0.20;;;;;;;13.12;100.00;101160.31;6339312;22;20053;-55
2021/09/21 01:52:15;;;;;;;0.38;0.38;;;;;;;13.04;100.00;101162.56;6339057;22;20438;-55
2021/09/21 01:58:18;;;;;;;1.73;0.43;;;;;;;12.94;100.00;101166.56;6339120;22;20347;-55
2021/09/21 01:58:46;;;;;;;0.82;0.30;;;;;;;12.89;100.00;101162.34;6338981;22;20025;-55
2021/09/21 02:01:49;;;;;;;0.30;0.30;;;;;;;12.97;100.00;101171.25;6339044;22;20072;-55
2021/09/21 02:04:52;;;;;;;2.95;0.80;;;;;;;13.07;100.00;101167.28;6338829;22;20026;-55
2021/09/21 02:07:55;;;;;;;0.45;0.45;;;;;;;13.11;100.00;101167.91;6339087;22;20026;-50
2021/09/21 02:10:59;;;;;;;1.45;0.63;;;;;;;13.16;100.00;101161.72;6338387;22;20028;-50
2021/09/21 02:14:04;;;;;;;0.40;0.30;;;;;;;13.13;100.00;101167.44;6338831;22;20026;-50
2021/09/21 02:17:06;;;;;;;2.75;0.40;;;;;;;12.71;100.00;101165.06;6338725;22;20344;-50
2021/09/21 02:20:10;;;;;;;0.68;0.30;;;;;;;12.94;100.00;101169.38;6338772;22;20076;-51
2021/09/21 02:23:13;;;;;;;1.23;0.30;;;;;;;13.04;100.00;101165.34;6338948;22;20064;-50
2021/09/21 02:26:16;;;;;;;3.13;0.77;;;;;;;13.09;100.00;101164.78;6319972;22;20045;-50
2021/09/21 02:29:19;;;;;;;0.35;0.25;;;;;;;13.21;100.00;101169.47;6338854;22;20500;-50
2021/09/21 02:32:22;;;;;;;2.08;0.63;;;;;;;13.24;100.00;101171.38;6338853;22;20044;-50
2021/09/21 02:35:25;;;;;;;2.72;0.63;;;;;;;13.13;100.00;101176.63;6338662;22;20025;-50
2021/09/21 02:38:28;;;;;;;3.15;0.77;;;;;;;13.16;100.00;101183.31;6338837;22;20516;-50
2021/09/21 02:41:31;;;;;;;1.27;0.60;;;;;;;13.17;100.00;101182.84;6338113;22;20026;-50
2021/09/21 02:44:34;;;;;;;1.75;0.55;;;;;;;13.36;100.00;101180.91;6338706;22;20022;-50
2021/09/21 02:47:38;;;;;;;1.48;1.38;;;;;;;13.46;100.00;101183.25;6319537;22;20057;-50
2021/09/21 02:50:41;;;;;;;3.58;1.70;;;;;;;13.38;100.00;101181.97;6338709;22;20106;-50
2021/09/21 02:53:44;;;;;;;2.90;1.30;;;;;;;13.37;100.00;101179.63;6338651;22;20377;-50
2021/09/21 02:56:47;;;;;;;5.40;1.25;;;;;;;13.51;100.00;101177.03;6338515;22;20018;-50
2021/09/21 02:59:50;;;;;;;1.92;0.65;;;;;;;13.59;100.00;101178.28;6338240;22;20094;-50
2021/09/21 03:02:55;;;;;;;2.10;1.02;;;;;;;13.60;100.00;101179.84;6338397;22;20026;-50
2021/09/21 03:06:08;;;;;;;1.50;0.50;;;;;;;13.50;100.00;101181.06;6338150;22;20392;-50
2021/09/21 03:19:00;;;;;;;3.17;0.75;;;;;;;13.69;100.00;101168.66;6338200;22;20088;-50
2021/09/21 03:22:03;;;;;;;1.58;0.50;;;;;;;13.77;100.00;101165.56;6338267;22;20068;-51
2021/09/21 03:25:09;;;;;;;2.67;0.80;;;;;;;13.80;100.00;101175.81;6338400;22;20356;-50
2021/09/21 03:28:13;;;;;;;2.17;0.85;;;;;;;13.81;100.00;101177.38;6338392;22;20109;-50
2021/09/21 03:31:16;;;;;;;2.75;0.93;;;;;;;13.81;100.00;101166.19;6338624;22;20083;-50
2021/09/21 03:34:19;;;;;;;3.88;0.98;;;;;;;13.90;100.00;101169.00;6338289;22;20048;-51
2021/09/21 03:37:22;;;;;;;2.22;0.73;;;;;;;13.87;100.00;101169.91;6338099;22;20068;-50
2021/09/21 03:40:25;;;;;;;2.65;0.70;;;;;;;13.90;100.00;101157.78;6338066;22;20351;-50
2021/09/21 03:43:28;;;;;;;2.15;0.85;;;;;;;13.88;100.00;101161.03;6318923;22;20026;-50
2021/09/21 03:46:31;;;;;;;10.45;0.95;;;;;;;13.87;100.00;101175.50;6337651;22;20095;-50
2021/09/21 03:49:34;;;;;;;3.22;0.77;;;;;;;13.89;100.00;101181.41;6338041;22;20022;-50
2021/09/21 03:52:37;;;;;;;9.50;1.55;;;;;;;13.79;100.00;101182.66;6337866;22;20048;-50
2021/09/21 03:55:39;;;;;;;2.85;0.73;;;;;;;13.87;100.00;101186.72;6338514;22;20018;-50
2021/09/21 03:58:42;;;;;;;2.92;0.50;;;;;;;13.94;100.00;101184.41;6318599;22;20026;-50
2021/09/21 04:01:45;;;;;;;1.13;1.00;;;;;;;13.81;100.00;101191.38;6337916;22;20072;-50
2021/09/21 04:04:48;;;;;;;2.63;0.68;;;;;;;13.77;100.00;101199.16;6338067;22;20064;-50
2021/09/21 04:07:51;;;;;;;4.10;1.10;;;;;;;13.72;100.00;101194.94;6338283;22;20022;-50
2021/09/21 04:10:54;;;;;;;0.38;0.32;;;;;;;13.73;100.00;101204.13;6338183;22;20332;-50
2021/09/21 04:13:57;;;;;;;1.00;0.60;;;;;;;13.76;100.00;101197.59;6338063;22;20030;-50
2021/09/21 04:17:00;;;;;;;1.55;0.63;;;;;;;13.66;100.00;101196.81;6338040;22;20068;-50
2021/09/21 04:20:03;;;;;;;1.48;0.95;;;;;;;13.67;100.00;101196.34;6337923;22;20026;-50
2021/09/21 04:23:08;;;;;;;2.35;0.60;;;;;;;13.72;100.00;101191.38;6338167;22;20053;-51
2021/09/21 04:26:11;;;;;;;2.90;0.85;;;;;;;13.88;100.00;101188.28;6339485;22;20112;-50
2021/09/21 04:29:14;;;;;;;7.35;1.85;;;;;;;13.96;100.00;101189.53;6339002;22;20331;-50
2021/09/21 04:32:20;;;;;;;5.97;0.88;;;;;;;13.85;100.00;101192.00;6339930;22;20075;-50
2021/09/21 04:35:23;;;;;;;1.38;0.75;;;;;;;13.85;100.00;101197.59;6339727;22;20447;-50
2021/09/21 04:38:26;;;;;;;1.80;0.98;;;;;;;13.93;100.00;101198.84;6339737;22;20084;-50
2021/09/21 04:41:29;;;;;;;0.93;0.52;;;;;;;13.91;100.00;101206.94;6320712;22;20144;-50
2021/09/21 04:44:32;;;;;;;1.23;1.13;;;;;;;14.06;100.00;101213.47;6339857;22;20343;-50
2021/09/21 04:47:36;;;;;;;4.03;0.93;;;;;;;14.15;100.00;101207.88;6339642;22;20056;-50
2021/09/21 04:50:39;;;;;;;2.00;0.98;;;;;;;14.14;100.00;101206.34;6320484;22;20026;-50
2021/09/21 04:53:42;;;;;;;1.00;0.70;;;;;;;14.16;100.00;101217.84;6320385;22;20320;-50
2021/09/21 04:56:44;;;;;;;1.55;0.30;;;;;;;13.42;100.00;101218.22;6339789;22;20227;-50
2021/09/21 04:59:47;;;;;;;2.47;1.10;;;;;;;13.49;100.00;101224.28;6339476;22;20076;-50
2021/09/21 05:02:50;;;;;;;1.48;0.40;;;;;;;13.62;100.00;101227.75;6339711;22;20038;-50
2021/09/21 05:05:53;;;;;;;3.40;0.75;;;;;;;13.59;100.00;101234.28;6339548;22;20461;-50
2021/09/21 05:08:56;;;;;;;12.25;1.23;;;;;;;13.62;100.00;101232.59;6339659;22;20037;-55
2021/09/21 05:11:59;;;;;;;8.05;1.08;;;;;;;13.57;100.00;101242.38;6339468;22;20064;-50
2021/09/21 05:15:03;;;;;;;0.57;0.50;;;;;;;13.56;100.00;101232.41;6339503;22;20133;-50
2021/09/21 05:18:06;;;;;;;1.45;0.50;;;;;;;13.63;100.00;101228.53;6339506;22;20350;-50
2021/09/21 05:21:09;;;;;;;1.45;0.70;;;;;;;13.47;100.00;101226.75;6339137;22;20025;-50
2021/09/21 05:24:12;;;;;;;0.50;0.40;;;;;;;13.75;100.00;101224.84;6339090;22;20400;-56
2021/09/21 05:27:15;;;;;;;1.50;0.50;;;;;;;13.88;100.00;101224.69;6339732;22;20463;-56
2021/09/21 05:30:19;;;;;;;2.38;0.55;;;;;;;14.08;100.00;101219.38;6339437;22;20100;-56
2021/09/21 05:33:25;;;;;;;2.17;1.08;;;;;;;14.13;100.00;101225.16;6339398;22;20072;-56
2021/09/21 05:36:28;;;;;;;3.45;1.02;;;;;;;13.68;100.00;101228.72;6319828;22;20068;-56
2021/09/21 05:39:32;;;;;;;2.00;0.65;;;;;;;13.84;100.00;101224.06;6338721;22;20057;-56
2021/09/21 05:42:36;;;;;;;0.32;0.32;;;;;;;13.84;100.00;101232.47;6339161;22;20144;-58
2021/09/21 05:45:39;;;;;;;1.17;0.43;;;;;;;13.78;100.00;101228.69;6338714;22;20363;-56
2021/09/21 05:48:42;;;;;;;0.80;0.75;;;;;;;13.77;100.00;101227.16;6339296;22;20375;-56
2021/09/21 05:51:45;;;;;;;9.18;0.75;;;;;;;13.78;100.00;101218.28;6338797;22;20029;-56
2021/09/21 05:54:47;;;;;;;2.13;0.63;;;;;;;13.75;100.00;101226.84;6339470;22;20026;-56
2021/09/21 05:57:50;;;;;;;8.25;2.40;;;;;;;13.74;100.00;101228.06;6338764;22;20083;-56
2021/09/21 06:00:56;;;;;;;6.75;0.73;;;;;;;13.71;100.00;101234.63;6339206;22;20022;-57
2021/09/21 06:03:59;;;;;;;1.05;0.55;;;;;;;13.80;100.00;101237.41;6318716;22;20057;-56
2021/09/21 06:07:02;;;;;;;2.40;0.77;;;;;;;13.80;100.00;101226.22;6338980;22;20053;-56
2021/09/21 06:10:06;;;;;;;1.00;0.90;;;;;;;13.69;100.00;101244.25;6339087;22;20044;-56
2021/09/21 06:13:10;;;;;;;3.05;0.68;;;;;;;13.56;100.00;101246.38;6338987;22;20083;-56
2021/09/21 06:16:15;;;;;;;1.38;0.35;;;;;;;13.84;100.00;101249.25;6338218;22;20351;-56
2021/09/21 06:19:18;;;;;;;2.10;0.35;;;;;;;13.96;100.00;101245.53;6338956;22;20025;-56
2021/09/21 06:22:21;;;;;;;0.57;0.28;;;;;;;14.00;100.00;101244.16;6338615;22;20064;-56
2021/09/21 06:25:23;;;;;;;1.60;0.40;;;;;;;13.88;100.00;101235.88;6338741;22;20056;-56
2021/09/21 06:28:26;;;;;;;0.68;0.57;;;;;;;13.45;100.00;101246.03;6338221;22;20029;-56
2021/09/21 06:31:29;;;;;;;1.10;0.65;;;;;;;13.63;100.00;101262.13;6338750;22;20195;-56
2021/09/21 06:34:32;;;;;;;1.52;0.70;;;;;;;13.58;100.00;101254.31;6319025;22;20069;-56
2021/09/21 06:37:35;;;;;;;3.72;1.05;;;;;;;13.52;100.00;101268.16;6338523;22;20060;-55
2021/09/21 06:40:39;;;;;;;2.47;0.95;;;;;;;14.00;100.00;101269.34;6337995;22;20045;-56
2021/09/21 06:43:42;;;;;;;5.88;0.57;;;;;;;14.17;100.00;101264.22;6319406;22;20025;-57
2021/09/21 06:46:46;;;;;;;1.23;0.35;;;;;;;14.32;100.00;101273.59;6301031;22;20025;-56
2021/09/21 06:49:48;;;;;;;1.38;0.38;;;;;;;14.33;100.00;101273.16;6338752;22;20025;-56
2021/09/21 06:52:52;;;;;;;0.75;0.38;;;;;;;14.41;100.00;101282.00;6338304;22;20022;-55
2021/09/21 06:55:55;;;;;;;3.78;0.50;;;;;;;14.49;100.00;101280.44;6338856;22;20022;-55
2021/09/21 06:58:58;;;;;;;2.35;0.80;;;;;;;14.46;100.00;101289.81;6319300;22;20021;-56
2021/09/21 07:02:00;;;;;;;3.08;0.70;;;;;;;14.58;100.00;101291.66;6338290;22;20022;-56
2021/09/21 07:05:04;;;;;;;2.05;1.02;;;;;;;14.72;100.00;101284.66;6338141;22;20473;-56
2021/09/21 07:08:07;;;;;;;7.00;1.45;;;;;;;14.80;100.00;101283.06;6338581;22;20021;-56
2021/09/21 07:11:10;;;;;;;8.30;1.38;;;;;;;14.81;100.00;101279.03;6337917;22;20451;-55
2021/09/21 07:14:14;;;;;;;3.80;1.20;;;;;;;14.94;100.00;101291.59;6318895;22;20082;-55
2021/09/21 07:17:17;;;;;;;2.50;1.05;;;;;;;14.83;100.00;101290.56;6338261;22;20355;-55
2021/09/21 07:20:26;;;;;;;1.50;0.43;;;;;;;14.85;100.00;101300.06;6338846;22;20019;-55
2021/09/21 07:23:29;;;;;;;3.67;1.17;;;;;;;14.98;100.00;101306.28;6338494;22;20068;-55
2021/09/21 07:26:32;;;;;;;2.33;0.90;;;;;;;15.12;100.00;101302.00;6337808;22;20356;-55
2021/09/21 07:29:35;;;;;;;2.20;0.90;;;;;;;15.34;100.00;101313.78;6318829;22;20072;-57
2021/09/21 07:32:38;;;;;;;6.15;1.50;;;;;;;15.26;100.00;101306.19;6337093;22;20080;-57
2021/09/21 07:35:44;;;;;;;4.72;1.02;;;;;;;15.38;100.00;101305.97;6318890;22;20462;-55
2021/09/21 07:38:47;;;;;;;3.00;1.33;;;;;;;15.39;100.00;101310.34;6338010;22;20030;-55
2021/09/21 07:41:50;;;;;;;0.93;0.38;;;;;;;15.50;100.00;101310.66;6336244;22;20026;-55
2021/09/21 07:44:54;;;;;;;3.90;1.95;;;;;;;15.61;100.00;101318.56;6337498;22;20155;-55
2021/09/21 07:47:57;;;;;;;4.05;1.55;;;;;;;15.73;100.00;101317.56;6337337;22;20030;-55
2021/09/21 07:51:00;;;;;;;3.05;1.23;;;;;;;15.87;100.00;101320.44;6318605;22;20022;-55
2021/09/21 07:54:03;;;;;;;3.40;1.15;;;;;;;15.99;100.00;101329.91;6318549;22;20520;-57
2021/09/21 07:57:06;;;;;;;4.35;1.13;;;;;;;16.04;100.00;101336.91;6338481;22;20071;-55
2021/09/21 08:00:12;;;;;;;11.85;1.42;;;;;;;15.97;100.00;101346.47;6340197;22;20075;-55
2021/09/21 08:03:15;;;;;;;4.95;1.25;;;;;;;16.02;100.00;101345.81;6340405;22;20072;-55
2021/09/21 08:06:18;;;;;;;1.73;1.25;;;;;;;16.11;100.00;101348.59;6339557;22;20025;-55
2021/09/21 08:09:21;;;;;;;3.40;1.30;;;;;;;16.16;100.00;101349.94;6340166;22;20431;-55
2021/09/21 08:12:25;;;;;;;4.25;1.45;;;;;;;16.28;100.00;101358.16;6320996;22;20022;-54
2021/09/21 08:15:30;;;;;;;6.50;0.65;;;;;;;16.34;100.00;101356.25;6339293;22;20042;-55
2021/09/21 08:18:33;;;;;;;14.23;1.00;;;;;;;16.39;100.00;101344.34;6340234;22;20107;-55
2021/09/21 08:21:37;;;;;;;3.78;0.98;;;;;;;16.33;100.00;101359.53;6339530;22;20048;-55
2021/09/21 08:24:40;;;;;;;13.80;1.33;;;;;;;16.29;100.00;101348.44;6340187;22;20021;-55
2021/09/21 08:27:43;;;;;;;1.00;0.88;;;;;;;16.39;100.00;101358.41;6339889;22;20045;-55
2021/09/21 08:30:45;;;;;;;2.47;0.82;;;;;;;16.39;100.00;101358.41;6339596;22;20348;-55
2021/09/21 08:33:49;;;;;;;6.20;1.25;;;;;;;16.39;100.00;101344.34;6320798;22;20030;-55
2021/09/21 08:36:53;;;;;;;1.58;0.60;;;;;;;16.45;100.00;101342.41;6339552;22;20017;-55
2021/09/21 08:39:56;;;;;;;4.15;1.38;;;;;;;16.56;100.00;101347.50;6320528;22;20025;-55
2021/09/21 08:43:00;;;;;;;3.50;1.13;;;;;;;16.82;100.00;101351.34;6340226;22;20450;-55
2021/09/21 08:46:03;;;;;;;5.45;1.42;;;;;;;17.06;100.00;101349.25;6339783;22;20022;-55
2021/09/21 08:49:06;;;;;;;3.15;1.20;;;;;;;17.18;100.00;101350.22;6340269;22;20116;-55
2021/09/21 08:52:09;;;;;;;5.78;2.05;;;;;;;17.35;100.00;101342.84;6339460;22;20051;-55
2021/09/21 08:55:13;;;;;;;4.55;1.90;;;;;;;17.47;100.00;101357.88;6339911;22;20026;-55
2021/09/21 08:58:24;;;;;;;3.17;1.33;;;;;;;17.60;100.00;101364.81;6339611;22;20057;-55
2021/09/21 09:01:40;;;;;;;1.83;0.90;;;;;;;17.59;100.00;101356.81;6339509;22;20029;-55
2021/09/21 09:05:01;;;;;;;1.60;0.70;;;;;;;17.62;100.00;101353.03;6339553;22;20054;-55
2021/09/21 09:08:04;;;;;;;2.70;1.45;;;;;;;17.67;100.00;101367.22;6320691;22;20022;-55
2021/09/21 09:11:19;;;;;;;2.10;0.70;;;;;;;17.68;100.00;101365.97;6338655;22;20025;-54
2021/09/21 09:14:25;;;;;;;3.72;0.88;;;;;;;17.72;100.00;101365.75;6320128;22;20076;-56
2021/09/21 09:17:29;;;;;;;5.50;0.90;;;;;;;17.79;100.00;101357.69;6339303;22;20519;-54
2021/09/21 09:20:33;;;;;;;2.22;1.15;;;;;;;17.82;100.00;101365.13;6339340;22;20025;-54
2021/09/21 09:23:46;;;;;;;5.85;0.52;;;;;;;17.86;100.00;101360.09;6320151;22;20075;-55
2021/09/21 09:26:49;;;;;;;3.78;0.90;;;;;;;17.94;100.00;101347.16;6319599;22;20049;-54
2021/09/21 09:29:59;;;;;;;5.30;1.02;;;;;;;17.86;100.00;101342.41;6339466;22;20469;-54
2021/09/21 09:33:03;;;;;;;6.35;0.90;;;;;;;17.91;100.00;101344.53;6339059;22;20343;-55
2021/09/21 09:36:06;;;;;;;7.47;1.08;;;;;;;18.00;100.00;101331.06;6339301;22;20021;-54
2021/09/21 09:39:09;;;;;;;4.38;0.90;;;;;;;17.95;100.00;101334.59;6339201;22;20030;-55
2021/09/21 09:42:13;;;;;;;2.88;0.93;;;;;;;17.88;100.00;101337.84;6338983;22;20152;-56
2021/09/21 09:45:27;;;;;;;9.25;1.15;;;;;;;17.90;100.00;101338.13;6302563;22;20478;-54
2021/09/21 09:48:31;;;;;;;1.85;0.77;;;;;;;17.85;100.00;101341.63;6320231;22;20022;-56
2021/09/21 09:51:44;;;;;;;2.92;0.73;;;;;;;17.91;100.00;101333.25;6338996;22;20021;-57
2021/09/21 09:54:48;;;;;;;0.93;0.32;;;;;;;17.97;100.00;101336.94;6339308;22;20021;-56
2021/09/21 09:57:51;;;;;;;3.10;0.45;;;;;;;18.04;100.00;101342.16;6339110;22;20025;-54
2021/09/21 10:00:55;;;;;;;6.38;0.73;;;;;;;18.10;100.00;101340.94;6339124;22;20065;-54
2021/09/21 10:03:59;;;;;;;4.70;1.27;;;;;;;18.14;100.00;101347.19;6339445;22;20339;-56
2021/09/21 10:07:02;;;;;;;1.98;0.73;;;;;;;18.24;100.00;101347.03;6338921;22;20111;-56
2021/09/21 10:10:06;;;;;;;1.75;0.68;;;;;;;18.26;100.00;101342.44;6338845;22;20098;-56
2021/09/21 10:13:12;;;;;;;4.72;0.98;;;;;;;18.34;100.00;101345.63;6339098;22;20068;-54
2021/09/21 10:16:15;;;;;;;0.30;0.22;;;;;;;18.47;100.00;101349.69;6338763;22;20084;-56
2021/09/21 10:19:23;;;;;;;5.97;0.85;;;;;;;18.51;100.00;101352.28;6338887;22;20021;-56
2021/09/21 10:22:35;;;;;;;3.72;0.50;;;;;;;18.52;100.00;101363.06;6338084;22;20021;-57
2021/09/21 10:25:42;;;;;;;1.25;0.40;;;;;;;18.61;100.00;101353.69;6338422;22;20387;-56
2021/09/21 10:28:49;;;;;;;1.10;0.30;;;;;;;18.67;100.00;101348.88;6339164;22;20038;-51
2021/09/21 10:31:56;;;;;;;2.83;0.70;;;;;;;18.70;100.00;101337.38;6338734;22;20025;-51
2021/09/21 10:35:09;;;;;;;7.05;0.30;;;;;;;18.92;100.00;101331.22;6339415;22;20060;-51
2021/09/21 10:38:12;;;;;;;0.93;0.28;;;;;;;18.95;100.00;101326.63;6339206;22;20021;-50
2021/09/21 10:41:15;;;;;;;8.23;0.50;;;;;;;18.92;100.00;101325.56;6339230;22;20473;-51
2021/09/21 10:44:20;;;;;;;1.35;0.82;;;;;;;18.93;100.00;101339.16;6339017;22;20053;-56
2021/09/21 10:47:26;;;;;;;1.38;0.50;;;;;;;18.94;100.00;101334.31;6338797;22;20041;-56
2021/09/21 10:50:30;;;;;;;1.08;0.47;;;;;;;19.02;100.00;101340.28;6339058;22;20492;-56
2021/09/21 10:53:33;;;;;;;4.47;1.00;;;;;;;19.07;100.00;101331.88;6339001;22;20025;-51
2021/09/21 10:56:40;;;;;;;4.03;0.40;;;;;;;19.06;100.00;101338.03;6338957;22;20021;-50
2021/09/21 10:59:58;;;;;;;2.50;0.43;;;;;;;19.10;100.00;101336.50;6339155;22;20026;-50
2021/09/21 11:03:02;;;;;;;0.82;0.20;;;;;;;19.09;100.00;101337.78;6319757;22;20026;-50
2021/09/21 11:06:06;;;;;;;3.08;1.48;;;;;;;19.15;100.00;101338.63;6319909;22;20021;-51
2021/09/21 11:09:08;;;;;;;10.10;0.60;;;;;;;19.24;100.00;101329.97;6338879;22;20029;-53
2021/09/21 11:12:12;;;;;;;1.27;0.43;;;;;;;19.32;100.00;101336.72;6319727;22;20075;-50
2021/09/21 11:15:17;;;;;;;5.75;1.95;;;;;;;19.39;100.00;101341.97;6338552;22;20029;-51
2021/09/21 11:18:20;;;;;;;0.38;0.38;;;;;;;19.41;100.00;101339.41;6338807;22;20095;-51
2021/09/21 11:21:23;;;;;;;8.02;0.65;;;;;;;19.31;100.00;101346.50;6338842;22;20450;-50
2021/09/21 11:24:25;;;;;;;7.25;0.40;;;;;;;19.34;100.00;101339.84;6338768;22;20094;-51
2021/09/21 11:27:29;;;;;;;2.33;0.17;;;;;;;19.28;100.00;101335.38;6338794;22;20026;-50
2021/09/21 11:30:32;;;;;;;6.00;0.82;;;;;;;19.24;100.00;101335.63;6319395;22;20026;-50
2021/09/21 11:33:38;;;;;;;1.75;0.80;;;;;;;19.21;100.00;101330.97;6339039;22;20022;-50
2021/09/21 11:36:46;;;;;;;10.77;0.47;;;;;;;19.27;100.00;101333.84;6340062;22;20090;-50
2021/09/21 11:39:49;;;;;;;4.13;0.55;;;;;;;19.46;100.00;101337.91;6321270;22;20029;-51
2021/09/21 11:42:54;;;;;;;0.45;0.13;;;;;;;19.62;100.00;101329.53;6340229;22;20022;-49
2021/09/21 11:46:05;;;;;;;3.33;0.55;;;;;;;19.77;100.00;101331.47;6340480;22;20460;-50
2021/09/21 11:49:09;;;;;;;4.95;0.93;;;;;;;20.04;100.00;101334.44;6321712;22;20105;-51
2021/09/21 11:52:12;;;;;;;0.40;0.35;;;;;;;20.16;100.00;101326.81;6321180;22;20411;-49
2021/09/21 11:55:18;;;;;;;3.75;0.65;;;;;;;20.11;100.00;101327.53;6341001;22;20438;-48
2021/09/21 11:58:30;;;;;;;9.82;0.68;;;;;;;20.15;100.00;101333.72;6340673;22;20025;-49
2021/09/21 12:01:33;;;;;;;1.52;0.38;;;;;;;19.96;100.00;101341.09;6321448;22;20049;-48
2021/09/21 12:04:43;;;;;;;2.55;0.40;;;;;;;19.76;100.00;101332.72;6321494;22;20029;-49
2021/09/21 12:07:48;;;;;;;0.82;0.28;;;;;;;19.74;100.00;101341.72;6340672;22;20100;-50
2021/09/21 12:10:55;;;;;;;1.75;0.47;;;;;;;19.94;100.00;101343.66;6321437;22;20071;-49
2021/09/21 12:13:58;;;;;;;5.30;0.93;;;;;;;19.99;100.00;101345.75;6321958;22;20442;-49
2021/09/21 12:17:03;;;;;;;13.55;0.95;;;;;;;19.93;100.00;101345.69;6340298;22;20037;-49
2021/09/21 12:20:08;;;;;;;2.85;1.02;;;;;;;19.83;100.00;101343.56;6340423;22;20022;-49
2021/09/21 12:23:12;;;;;;;6.32;0.70;;;;;;;19.71;100.00;101339.88;6320761;22;20090;-49
2021/09/21 12:26:17;;;;;;;0.63;0.35;;;;;;;19.68;100.00;101330.34;6321429;22;20072;-49
2021/09/21 12:29:19;;;;;;;0.40;0.30;;;;;;;19.72;100.00;101340.66;6340248;22;20148;-49
2021/09/21 12:32:26;;;;;;;7.78;1.15;;;;;;;19.81;100.00;101340.47;6340404;22;20037;-49
2021/09/21 12:35:35;;;;;;;1.38;0.52;;;;;;;19.89;100.00;101339.50;6320830;22;20411;-49
2021/09/21 12:38:38;;;;;;;5.63;0.80;;;;;;;20.02;100.00;101341.88;6340149;22;20064;-49
2021/09/21 12:41:45;;;;;;;0.90;0.20;;;;;;;19.89;100.00;101344.38;6340048;22;20082;-49
2021/09/21 12:44:48;;;;;;;4.40;0.90;;;;;;;19.82;100.00;101333.53;6338984;22;20025;-51
2021/09/21 12:47:51;;;;;;;3.63;0.40;;;;;;;19.80;100.00;101330.44;6339458;22;20488;-51
2021/09/21 12:50:56;;;;;;;4.63;0.52;;;;;;;19.89;100.00;101333.06;6338761;22;20076;-49
2021/09/21 12:54:02;;;;;;;7.20;0.65;;;;;;;20.04;100.00;101328.78;6338174;22;20022;-49
2021/09/21 12:57:05;;;;;;;3.33;0.47;;;;;;;20.01;100.00;101320.56;6337965;22;20041;-49
2021/09/21 13:00:14;;;;;;;3.60;0.95;;;;;;;19.99;100.00;101328.78;6318905;22;20433;-49
2021/09/21 13:03:16;;;;;;;6.13;0.68;;;;;;;20.00;100.00;101322.59;6338184;22;20027;-49
2021/09/21 13:06:19;;;;;;;4.32;0.95;;;;;;;19.98;100.00;101311.03;6339280;22;20022;-51
2021/09/21 13:09:22;;;;;;;2.75;0.28;;;;;;;20.10;100.00;101309.00;6339581;22;20021;-50
2021/09/21 13:12:27;;;;;;;6.38;0.52;;;;;;;20.28;100.00;101305.78;6339514;22;20021;-50
2021/09/21 13:15:31;;;;;;;4.38;0.22;;;;;;;20.17;100.00;101300.06;6339292;22;20076;-50
2021/09/21 13:18:35;;;;;;;1.90;0.30;;;;;;;20.24;100.00;101294.72;6320328;22;20351;-50
2021/09/21 13:21:38;;;;;;;5.25;0.38;;;;;;;20.23;100.00;101295.22;6339225;22;20343;-50
2021/09/21 13:24:41;;;;;;;0.95;0.45;;;;;;;20.19;100.00;101300.31;6339513;22;20067;-50
2021/09/21 13:27:44;;;;;;;4.88;0.70;;;;;;;20.11;100.00;101291.56;6339064;22;20386;-49
2021/09/21 13:30:50;;;;;;;1.65;0.40;;;;;;;19.99;100.00;101292.00;6320449;22;20385;-50
2021/09/21 13:33:52;;;;;;;7.47;0.60;;;;;;;19.99;100.00;101292.00;6339393;22;20072;-51
2021/09/21 13:36:55;;;;;;;3.15;0.30;;;;;;;20.05;100.00;101284.31;6339324;22;20025;-50
2021/09/21 13:39:59;;;;;;;4.15;0.60;;;;;;;20.04;100.00;101277.09;6339038;22;20103;-51
2021/09/21 13:43:01;;;;;;;6.78;0.50;;;;;;;20.06;100.00;101274.53;6339152;22;20026;-50
2021/09/21 13:46:05;;;;;;;1.25;0.52;;;;;;;19.92;100.00;101284.00;6339063;22;20022;-50
2021/09/21 13:49:10;;;;;;;3.03;0.38;;;;;;;19.81;100.00;101281.09;6339457;22;20029;-50
2021/09/21 13:52:15;;;;;;;0.35;0.22;;;;;;;19.93;100.00;101277.81;6339010;22;20053;-50
2021/09/21 13:55:19;;;;;;;7.63;0.40;;;;;;;19.92;100.00;101279.13;6339215;22;20026;-50
2021/09/21 13:58:22;;;;;;;1.00;0.30;;;;;;;20.05;100.00;101273.00;6339093;22;20055;-50
2021/09/21 14:01:25;;;;;;;3.25;0.22;;;;;;;20.17;100.00;101275.38;6338699;22;20507;-50
2021/09/21 14:04:28;;;;;;;1.13;0.20;;;;;;;20.30;100.00;101277.75;6339030;22;20049;-48
2021/09/21 14:07:32;;;;;;;2.67;0.60;;;;;;;20.21;100.00;101264.63;6338973;22;20442;-48
2021/09/21 14:10:35;;;;;;;4.78;0.45;;;;;;;20.22;100.00;101266.19;6339302;22;20025;-50
2021/09/21 14:13:38;;;;;;;0.73;0.32;;;;;;;20.30;100.00;101261.56;6339085;22;20096;-50
2021/09/21 14:16:41;;;;;;;9.10;0.82;;;;;;;20.37;100.00;101266.75;6338857;22;20022;-48